THY4VB LTFM-LTBS
Flight info
| Callsign | THY4VB |
|---|---|
| Flight time | 0h 54m |
| Altitude | 38000 |
| Route | RATVU UT35 NUMTI DCT KULAR/N0442F390 UT44 ATSAL |
| Aircraft | B738/M-SDE2E3FGHIRWXY/LB1 |
Departure
| Time | 2026-04-15 13:51 |
|---|---|
| Airport | İstanbul Airport (LTFM) |
Arrival
| Time | 2026-04-15 14:45 |
|---|---|
| Airport | Dalaman International Airport (LTBS) |
| Time | Latitude | Longitude | Altitude | Speed | Heading |
|---|---|---|---|---|---|
| 2026-04-15 13:31 | 41.27483 | 28.73582 | 330 ft | 0 kts | 359° |
| 2026-04-15 13:39 | 41.27482 | 28.73582 | 333 ft | 2 kts | 359° |
| 2026-04-15 13:39 | 41.27457 | 28.73582 | 329 ft | 4 kts | 359° |
| 2026-04-15 13:39 | 41.27430 | 28.73583 | 331 ft | 4 kts | 359° |
| 2026-04-15 13:39 | 41.27406 | 28.73580 | 329 ft | 4 kts | 40° |
| 2026-04-15 13:40 | 41.27398 | 28.73560 | 331 ft | 2 kts | 89° |
| 2026-04-15 13:40 | 41.27398 | 28.73535 | 332 ft | 0 kts | 89° |
| 2026-04-15 13:44 | 41.27398 | 28.73536 | 332 ft | 0 kts | 89° |
| 2026-04-15 13:44 | 41.27398 | 28.73563 | 331 ft | 6 kts | 89° |
| 2026-04-15 13:44 | 41.27399 | 28.73656 | 333 ft | 13 kts | 90° |
| 2026-04-15 13:45 | 41.27399 | 28.73774 | 333 ft | 13 kts | 90° |
| 2026-04-15 13:45 | 41.27402 | 28.73889 | 333 ft | 12 kts | 88° |
| 2026-04-15 13:45 | 41.27405 | 28.74002 | 329 ft | 12 kts | 86° |
| 2026-04-15 13:47 | 41.27414 | 28.74794 | 333 ft | 17 kts | 89° |
| 2026-04-15 13:47 | 41.27417 | 28.74953 | 333 ft | 17 kts | 90° |
| 2026-04-15 13:47 | 41.27418 | 28.75105 | 330 ft | 16 kts | 88° |
| 2026-04-15 13:48 | 41.27420 | 28.75252 | 329 ft | 16 kts | 90° |
| 2026-04-15 13:48 | 41.27415 | 28.75345 | 330 ft | 15 kts | 115° |
| 2026-04-15 13:48 | 41.27356 | 28.75365 | 331 ft | 8 kts | 179° |
| 2026-04-15 13:48 | 41.27284 | 28.75367 | 330 ft | 13 kts | 179° |
| 2026-04-15 13:49 | 41.27172 | 28.75370 | 330 ft | 19 kts | 179° |
| 2026-04-15 13:49 | 41.27027 | 28.75376 | 333 ft | 23 kts | 178° |
| 2026-04-15 13:49 | 41.26855 | 28.75377 | 333 ft | 26 kts | 179° |
| 2026-04-15 13:49 | 41.26660 | 28.75381 | 332 ft | 29 kts | 178° |
| 2026-04-15 13:50 | 41.26491 | 28.75385 | 332 ft | 19 kts | 178° |
| 2026-04-15 13:50 | 41.26342 | 28.75388 | 329 ft | 23 kts | 179° |
| 2026-04-15 13:50 | 41.26248 | 28.75474 | 333 ft | 19 kts | 88° |
| 2026-04-15 13:50 | 41.26261 | 28.75653 | 333 ft | 16 kts | 56° |
| 2026-04-15 13:51 | 41.26443 | 28.75663 | 333 ft | 57 kts | 360° |
| 2026-04-15 13:51 | 41.27094 | 28.75651 | 331 ft | 127 kts | 359° |
| 2026-04-15 13:51 | 41.28111 | 28.75608 | 675 ft | 151 kts | 3° |
| 2026-04-15 13:51 | 41.29138 | 28.75961 | 1439 ft | 162 kts | 29° |
| 2026-04-15 13:52 | 41.30162 | 28.76671 | 2472 ft | 170 kts | 29° |
| 2026-04-15 13:52 | 41.31309 | 28.77500 | 3212 ft | 206 kts | 28° |
| 2026-04-15 13:52 | 41.32658 | 28.78450 | 3578 ft | 234 kts | 28° |
| 2026-04-15 13:52 | 41.34140 | 28.79500 | 4040 ft | 252 kts | 28° |
| 2026-04-15 13:53 | 41.35735 | 28.80652 | 4625 ft | 267 kts | 28° |
| 2026-04-15 13:53 | 41.37132 | 28.82243 | 5727 ft | 272 kts | 55° |
| 2026-04-15 13:53 | 41.38106 | 28.84464 | 6940 ft | 277 kts | 65° |
| 2026-04-15 13:53 | 41.38514 | 28.86975 | 7736 ft | 287 kts | 88° |
| 2026-04-15 13:54 | 41.38477 | 28.89665 | 8502 ft | 292 kts | 97° |
| 2026-04-15 13:54 | 41.37743 | 28.92179 | 9283 ft | 297 kts | 127° |
| 2026-04-15 13:54 | 41.36183 | 28.93963 | 10143 ft | 297 kts | 154° |
| 2026-04-15 13:54 | 41.34193 | 28.94808 | 10610 ft | 311 kts | 174° |
| 2026-04-15 13:55 | 41.31951 | 28.94898 | 10806 ft | 334 kts | 181° |
| 2026-04-15 13:55 | 41.29571 | 28.94872 | 11209 ft | 347 kts | 181° |
| 2026-04-15 13:55 | 41.27147 | 28.94870 | 11963 ft | 350 kts | 181° |
| 2026-04-15 13:55 | 41.24698 | 28.94870 | 12724 ft | 353 kts | 182° |
| 2026-04-15 13:56 | 41.22245 | 28.94697 | 13522 ft | 355 kts | 186° |
| 2026-04-15 13:56 | 41.19759 | 28.94482 | 14300 ft | 358 kts | 185° |
| 2026-04-15 13:56 | 41.17250 | 28.94315 | 14985 ft | 363 kts | 184° |
| 2026-04-15 13:56 | 41.14711 | 28.94163 | 15659 ft | 367 kts | 183° |
| 2026-04-15 13:57 | 41.12150 | 28.94010 | 16361 ft | 371 kts | 184° |
| 2026-04-15 13:57 | 41.09558 | 28.93855 | 17049 ft | 375 kts | 184° |
| 2026-04-15 13:57 | 41.06965 | 28.93697 | 17714 ft | 379 kts | 184° |
| 2026-04-15 13:57 | 41.04319 | 28.93534 | 18379 ft | 382 kts | 184° |
| 2026-04-15 13:58 | 41.01645 | 28.93366 | 18951 ft | 387 kts | 186° |
| 2026-04-15 13:58 | 40.98946 | 28.93194 | 19533 ft | 390 kts | 184° |
| 2026-04-15 13:58 | 40.96221 | 28.93024 | 20153 ft | 393 kts | 185° |
| 2026-04-15 13:58 | 40.93477 | 28.92849 | 20745 ft | 396 kts | 185° |
| 2026-04-15 13:59 | 40.90712 | 28.92670 | 21314 ft | 399 kts | 186° |
| 2026-04-15 13:59 | 40.87925 | 28.92490 | 21848 ft | 403 kts | 186° |
| 2026-04-15 13:59 | 40.85111 | 28.92309 | 22392 ft | 406 kts | 186° |
| 2026-04-15 13:59 | 40.82273 | 28.92126 | 22921 ft | 410 kts | 187° |
| 2026-04-15 14:00 | 40.79414 | 28.91943 | 23420 ft | 413 kts | 187° |
| 2026-04-15 14:00 | 40.76524 | 28.91757 | 23862 ft | 417 kts | 187° |
| 2026-04-15 14:00 | 40.73615 | 28.91572 | 24324 ft | 419 kts | 187° |
| 2026-04-15 14:00 | 40.70699 | 28.91387 | 24816 ft | 420 kts | 187° |
| 2026-04-15 14:01 | 40.64837 | 28.91016 | 25709 ft | 424 kts | 187° |
| 2026-04-15 14:01 | 40.61882 | 28.90828 | 26131 ft | 426 kts | 187° |
| 2026-04-15 14:01 | 40.58910 | 28.90639 | 26501 ft | 429 kts | 188° |
| 2026-04-15 14:02 | 40.55919 | 28.90449 | 26918 ft | 431 kts | 188° |
| 2026-04-15 14:02 | 40.52919 | 28.90259 | 27357 ft | 433 kts | 188° |
| 2026-04-15 14:02 | 40.49908 | 28.90069 | 27773 ft | 434 kts | 188° |
| 2026-04-15 14:02 | 40.47902 | 28.89942 | 28038 ft | 435 kts | 188° |
| 2026-04-15 14:03 | 40.45977 | 28.89821 | 28292 ft | 437 kts | 188° |
| 2026-04-15 14:03 | 40.42976 | 28.89631 | 28625 ft | 439 kts | 188° |
| 2026-04-15 14:03 | 40.39916 | 28.89437 | 28969 ft | 442 kts | 188° |
| 2026-04-15 14:03 | 40.36834 | 28.89243 | 29325 ft | 444 kts | 188° |
| 2026-04-15 14:04 | 40.33747 | 28.89048 | 29669 ft | 445 kts | 188° |
| 2026-04-15 14:04 | 40.30642 | 28.88853 | 30017 ft | 447 kts | 188° |
| 2026-04-15 14:04 | 40.27523 | 28.88658 | 30346 ft | 449 kts | 188° |
| 2026-04-15 14:04 | 40.24403 | 28.88462 | 30632 ft | 450 kts | 188° |
| 2026-04-15 14:05 | 40.21272 | 28.88266 | 30956 ft | 450 kts | 188° |
| 2026-04-15 14:05 | 40.18149 | 28.88072 | 31398 ft | 447 kts | 188° |
| 2026-04-15 14:05 | 40.15065 | 28.87883 | 31979 ft | 440 kts | 188° |
| 2026-04-15 14:05 | 40.12022 | 28.87698 | 32591 ft | 434 kts | 188° |
| 2026-04-15 14:06 | 40.09029 | 28.87514 | 33124 ft | 429 kts | 189° |
| 2026-04-15 14:06 | 40.06088 | 28.87331 | 33563 ft | 427 kts | 189° |
| 2026-04-15 14:06 | 40.03129 | 28.87145 | 34005 ft | 424 kts | 188° |
| 2026-04-15 14:06 | 40.00197 | 28.86961 | 34459 ft | 420 kts | 188° |
| 2026-04-15 14:07 | 39.97280 | 28.86778 | 34753 ft | 420 kts | 189° |
| 2026-04-15 14:07 | 39.94359 | 28.86593 | 34970 ft | 421 kts | 189° |
| 2026-04-15 14:07 | 39.91430 | 28.86408 | 35227 ft | 421 kts | 189° |
| 2026-04-15 14:07 | 39.88504 | 28.86225 | 35519 ft | 420 kts | 189° |
| 2026-04-15 14:08 | 39.85589 | 28.86044 | 35812 ft | 420 kts | 188° |
| 2026-04-15 14:08 | 39.82669 | 28.85863 | 36050 ft | 420 kts | 188° |
| 2026-04-15 14:08 | 39.79750 | 28.85682 | 36307 ft | 420 kts | 188° |
| 2026-04-15 14:08 | 39.76835 | 28.85501 | 36535 ft | 420 kts | 189° |
| 2026-04-15 14:09 | 39.73916 | 28.85319 | 36773 ft | 420 kts | 189° |
| 2026-04-15 14:09 | 39.71006 | 28.85140 | 37093 ft | 418 kts | 189° |
| 2026-04-15 14:09 | 39.68104 | 28.84962 | 37404 ft | 417 kts | 189° |
| 2026-04-15 14:09 | 39.65205 | 28.84783 | 37637 ft | 417 kts | 189° |
| 2026-04-15 14:10 | 39.62308 | 28.84604 | 37880 ft | 416 kts | 189° |
| 2026-04-15 14:10 | 39.59411 | 28.84426 | 38114 ft | 416 kts | 189° |
| 2026-04-15 14:10 | 39.56501 | 28.84245 | 38094 ft | 420 kts | 189° |
| 2026-04-15 14:11 | 39.50667 | 28.83885 | 38097 ft | 418 kts | 189° |
| 2026-04-15 14:11 | 39.44882 | 28.83534 | 38106 ft | 413 kts | 189° |
| 2026-04-15 14:12 | 39.39159 | 28.83185 | 38111 ft | 410 kts | 189° |
| 2026-04-15 14:12 | 39.33502 | 28.82838 | 38113 ft | 409 kts | 189° |
| 2026-04-15 14:13 | 39.27817 | 28.82488 | 38128 ft | 412 kts | 189° |
| 2026-04-15 14:13 | 39.22046 | 28.82132 | 38109 ft | 417 kts | 188° |
| 2026-04-15 14:14 | 39.16265 | 28.81782 | 38113 ft | 416 kts | 188° |
| 2026-04-15 14:14 | 39.10486 | 28.81432 | 38112 ft | 415 kts | 188° |
| 2026-04-15 14:15 | 39.04727 | 28.81084 | 38120 ft | 413 kts | 188° |
| 2026-04-15 14:15 | 38.98992 | 28.80737 | 38122 ft | 412 kts | 188° |
| 2026-04-15 14:16 | 38.93305 | 28.80392 | 38116 ft | 412 kts | 188° |
| 2026-04-15 14:16 | 38.87572 | 28.80045 | 38105 ft | 412 kts | 188° |
| 2026-04-15 14:17 | 38.81848 | 28.79701 | 38115 ft | 412 kts | 188° |
| 2026-04-15 14:17 | 38.76123 | 28.79356 | 38114 ft | 412 kts | 188° |
| 2026-04-15 14:18 | 38.70390 | 28.79011 | 38115 ft | 412 kts | 187° |
| 2026-04-15 14:18 | 38.64669 | 28.78668 | 38107 ft | 412 kts | 187° |
| 2026-04-15 14:19 | 38.58940 | 28.78324 | 38114 ft | 412 kts | 187° |
| 2026-04-15 14:19 | 38.53211 | 28.77981 | 38115 ft | 412 kts | 187° |
| 2026-04-15 14:19 | 38.50333 | 28.77808 | 37593 ft | 421 kts | 187° |
| 2026-04-15 14:20 | 38.47425 | 28.77631 | 37000 ft | 421 kts | 187° |
| 2026-04-15 14:20 | 38.44506 | 28.77458 | 36424 ft | 419 kts | 186° |
| 2026-04-15 14:20 | 38.41588 | 28.77286 | 35813 ft | 419 kts | 186° |
| 2026-04-15 14:20 | 38.38673 | 28.77113 | 35302 ft | 417 kts | 186° |
| 2026-04-15 14:21 | 38.35788 | 28.76944 | 34861 ft | 414 kts | 185° |
| 2026-04-15 14:21 | 38.32918 | 28.76774 | 34424 ft | 411 kts | 185° |
| 2026-04-15 14:21 | 38.30076 | 28.76606 | 33973 ft | 408 kts | 185° |
| 2026-04-15 14:21 | 38.27241 | 28.76438 | 33482 ft | 406 kts | 185° |
| 2026-04-15 14:22 | 38.24433 | 28.76271 | 33030 ft | 403 kts | 185° |
| 2026-04-15 14:22 | 38.21635 | 28.76106 | 32593 ft | 401 kts | 185° |
| 2026-04-15 14:22 | 38.18854 | 28.75941 | 32164 ft | 399 kts | 185° |
| 2026-04-15 14:22 | 38.16119 | 28.75779 | 31749 ft | 397 kts | 185° |
| 2026-04-15 14:23 | 38.13367 | 28.75616 | 31327 ft | 395 kts | 185° |
| 2026-04-15 14:23 | 38.10627 | 28.75454 | 30913 ft | 393 kts | 185° |
| 2026-04-15 14:23 | 38.07890 | 28.75292 | 30500 ft | 392 kts | 185° |
| 2026-04-15 14:23 | 38.05167 | 28.75131 | 30054 ft | 392 kts | 185° |
| 2026-04-15 14:24 | 38.02450 | 28.74970 | 29571 ft | 390 kts | 185° |
| 2026-04-15 14:24 | 37.99751 | 28.74811 | 29106 ft | 387 kts | 185° |
| 2026-04-15 14:24 | 37.97071 | 28.74654 | 28683 ft | 385 kts | 185° |
| 2026-04-15 14:24 | 37.94399 | 28.74497 | 28248 ft | 383 kts | 185° |
| 2026-04-15 14:25 | 37.91742 | 28.74341 | 27815 ft | 381 kts | 185° |
| 2026-04-15 14:25 | 37.89100 | 28.74186 | 27392 ft | 379 kts | 185° |
| 2026-04-15 14:25 | 37.86470 | 28.74031 | 26978 ft | 378 kts | 185° |
| 2026-04-15 14:25 | 37.83851 | 28.73877 | 26556 ft | 376 kts | 185° |
| 2026-04-15 14:26 | 37.81234 | 28.73724 | 26139 ft | 375 kts | 185° |
| 2026-04-15 14:26 | 37.78630 | 28.73571 | 25726 ft | 374 kts | 185° |
| 2026-04-15 14:26 | 37.76028 | 28.73419 | 25289 ft | 374 kts | 185° |
| 2026-04-15 14:26 | 37.73430 | 28.73266 | 24876 ft | 373 kts | 185° |
| 2026-04-15 14:27 | 37.70836 | 28.73115 | 24439 ft | 374 kts | 184° |
| 2026-04-15 14:27 | 37.68239 | 28.72963 | 24026 ft | 373 kts | 184° |
| 2026-04-15 14:27 | 37.65644 | 28.72811 | 23588 ft | 373 kts | 184° |
| 2026-04-15 14:27 | 37.63088 | 28.72662 | 23119 ft | 372 kts | 184° |
| 2026-04-15 14:28 | 37.60510 | 28.72512 | 22679 ft | 370 kts | 184° |
| 2026-04-15 14:28 | 37.57940 | 28.72363 | 22259 ft | 368 kts | 184° |
| 2026-04-15 14:28 | 37.55390 | 28.72214 | 21838 ft | 366 kts | 184° |
| 2026-04-15 14:28 | 37.52848 | 28.72066 | 21416 ft | 365 kts | 184° |
| 2026-04-15 14:29 | 37.50320 | 28.71885 | 20998 ft | 362 kts | 189° |
| 2026-04-15 14:29 | 37.47918 | 28.71012 | 20462 ft | 361 kts | 204° |
| 2026-04-15 14:29 | 37.45588 | 28.69793 | 19890 ft | 364 kts | 205° |
| 2026-04-15 14:29 | 37.43234 | 28.68551 | 19313 ft | 368 kts | 205° |
| 2026-04-15 14:30 | 37.40863 | 28.67316 | 18755 ft | 370 kts | 204° |
| 2026-04-15 14:30 | 37.38500 | 28.66103 | 18163 ft | 364 kts | 205° |
| 2026-04-15 14:30 | 37.36176 | 28.64922 | 17654 ft | 355 kts | 205° |
| 2026-04-15 14:30 | 37.33932 | 28.63792 | 17396 ft | 340 kts | 205° |
| 2026-04-15 14:31 | 37.31786 | 28.62711 | 17117 ft | 335 kts | 205° |
| 2026-04-15 14:31 | 37.29633 | 28.61625 | 16863 ft | 332 kts | 205° |
| 2026-04-15 14:31 | 37.27490 | 28.60546 | 16607 ft | 332 kts | 205° |
| 2026-04-15 14:31 | 37.25341 | 28.59465 | 16356 ft | 334 kts | 205° |
| 2026-04-15 14:32 | 37.23134 | 28.58560 | 16042 ft | 337 kts | 190° |
| 2026-04-15 14:32 | 37.20802 | 28.58681 | 15776 ft | 338 kts | 171° |
| 2026-04-15 14:32 | 37.18520 | 28.59383 | 15476 ft | 338 kts | 168° |
| 2026-04-15 14:32 | 37.16259 | 28.60164 | 15129 ft | 335 kts | 162° |
| 2026-04-15 14:33 | 37.14296 | 28.61664 | 14812 ft | 329 kts | 137° |
| 2026-04-15 14:33 | 37.12959 | 28.63946 | 14508 ft | 322 kts | 115° |
| 2026-04-15 14:33 | 37.12346 | 28.66594 | 14224 ft | 314 kts | 96° |
| 2026-04-15 14:33 | 37.12435 | 28.69291 | 13939 ft | 308 kts | 79° |
| 2026-04-15 14:34 | 37.12814 | 28.71912 | 13619 ft | 305 kts | 78° |
| 2026-04-15 14:34 | 37.13206 | 28.74525 | 13333 ft | 306 kts | 78° |
| 2026-04-15 14:34 | 37.13592 | 28.77158 | 13055 ft | 309 kts | 79° |
| 2026-04-15 14:34 | 37.13973 | 28.79807 | 12743 ft | 309 kts | 79° |
| 2026-04-15 14:35 | 37.14346 | 28.82448 | 12438 ft | 306 kts | 79° |
| 2026-04-15 14:35 | 37.14712 | 28.85060 | 12139 ft | 302 kts | 79° |
| 2026-04-15 14:35 | 37.15075 | 28.87662 | 11855 ft | 305 kts | 79° |
| 2026-04-15 14:35 | 37.15443 | 28.90298 | 11551 ft | 307 kts | 79° |
| 2026-04-15 14:36 | 37.15759 | 28.92905 | 11250 ft | 306 kts | 88° |
| 2026-04-15 14:36 | 37.15377 | 28.95494 | 10949 ft | 304 kts | 115° |
| 2026-04-15 14:36 | 37.14645 | 28.97023 | 10722 ft | 302 kts | 131° |
| 2026-04-15 14:36 | 37.13149 | 28.98843 | 10402 ft | 299 kts | 139° |
| 2026-04-15 14:37 | 37.11599 | 29.00546 | 10080 ft | 292 kts | 140° |
| 2026-04-15 14:37 | 37.10099 | 29.02201 | 9873 ft | 285 kts | 140° |
| 2026-04-15 14:37 | 37.08589 | 29.03791 | 9601 ft | 282 kts | 148° |
| 2026-04-15 14:37 | 37.06769 | 29.04594 | 9321 ft | 278 kts | 177° |
| 2026-04-15 14:38 | 37.04908 | 29.04278 | 9060 ft | 274 kts | 201° |
| 2026-04-15 14:38 | 37.03273 | 29.03072 | 8739 ft | 274 kts | 221° |
| 2026-04-15 14:38 | 37.01889 | 29.01432 | 8423 ft | 275 kts | 225° |
| 2026-04-15 14:38 | 37.00516 | 28.99753 | 8088 ft | 277 kts | 225° |
| 2026-04-15 14:39 | 36.99141 | 28.98084 | 7767 ft | 272 kts | 225° |
| 2026-04-15 14:39 | 36.97799 | 28.96463 | 7517 ft | 263 kts | 224° |
| 2026-04-15 14:39 | 36.96497 | 28.94898 | 7196 ft | 255 kts | 223° |
| 2026-04-15 14:39 | 36.95238 | 28.93393 | 6858 ft | 246 kts | 223° |
| 2026-04-15 14:40 | 36.94027 | 28.91923 | 6491 ft | 241 kts | 224° |
| 2026-04-15 14:40 | 36.92847 | 28.90432 | 6119 ft | 241 kts | 225° |
| 2026-04-15 14:40 | 36.91685 | 28.88957 | 5766 ft | 234 kts | 224° |
| 2026-04-15 14:40 | 36.90553 | 28.87524 | 5234 ft | 235 kts | 224° |
| 2026-04-15 14:41 | 36.89921 | 28.86726 | 4838 ft | 240 kts | 224° |
| 2026-04-15 14:41 | 36.89156 | 28.85788 | 4469 ft | 241 kts | 220° |
| 2026-04-15 14:41 | 36.88196 | 28.85059 | 4147 ft | 236 kts | 199° |
| 2026-04-15 14:41 | 36.86654 | 28.84520 | 3765 ft | 225 kts | 194° |
| 2026-04-15 14:42 | 36.85200 | 28.84012 | 3373 ft | 209 kts | 194° |
| 2026-04-15 14:42 | 36.83834 | 28.83571 | 3017 ft | 199 kts | 196° |
| 2026-04-15 14:42 | 36.82541 | 28.83095 | 2727 ft | 184 kts | 196° |
| 2026-04-15 14:42 | 36.81356 | 28.82684 | 2365 ft | 169 kts | 196° |
| 2026-04-15 14:43 | 36.80283 | 28.82317 | 2065 ft | 153 kts | 197° |
| 2026-04-15 14:43 | 36.79300 | 28.81979 | 1823 ft | 147 kts | 197° |
| 2026-04-15 14:43 | 36.78317 | 28.81642 | 1577 ft | 148 kts | 195° |
| 2026-04-15 14:43 | 36.77302 | 28.81295 | 1317 ft | 154 kts | 195° |
| 2026-04-15 14:44 | 36.76267 | 28.80941 | 1032 ft | 152 kts | 196° |
| 2026-04-15 14:44 | 36.75259 | 28.80597 | 745 ft | 149 kts | 196° |
| 2026-04-15 14:44 | 36.74274 | 28.80261 | 467 ft | 145 kts | 197° |
| 2026-04-15 14:44 | 36.73332 | 28.79942 | 217 ft | 137 kts | 196° |
| 2026-04-15 14:45 | 36.72384 | 28.79615 | 36 ft | 143 kts | 195° |
| 2026-04-15 14:45 | 36.71476 | 28.79303 | 12 ft | 113 kts | 196° |
| 2026-04-15 14:45 | 36.70919 | 28.79117 | 12 ft | 65 kts | 195° |
| 2026-04-15 14:45 | 36.70630 | 28.78940 | 12 ft | 39 kts | 220° |
| 2026-04-15 14:46 | 36.70642 | 28.78810 | 12 ft | 20 kts | 21° |
| 2026-04-15 14:46 | 36.70783 | 28.78857 | 12 ft | 22 kts | 15° |
| 2026-04-15 14:46 | 36.70941 | 28.78910 | 12 ft | 25 kts | 15° |
| 2026-04-15 14:46 | 36.71103 | 28.78964 | 12 ft | 23 kts | 15° |
| 2026-04-15 14:47 | 36.71255 | 28.79019 | 12 ft | 22 kts | 15° |
| 2026-04-15 14:47 | 36.71334 | 28.78973 | 12 ft | 14 kts | 285° |
| 2026-04-15 14:47 | 36.71357 | 28.78859 | 13 ft | 13 kts | 296° |
| 2026-04-15 14:47 | 36.71439 | 28.78855 | 12 ft | 13 kts | 21° |
| 2026-04-15 14:48 | 36.71524 | 28.78884 | 11 ft | 13 kts | 13° |
| 2026-04-15 14:48 | 36.71607 | 28.78914 | 11 ft | 12 kts | 15° |
| 2026-04-15 14:48 | 36.71688 | 28.78942 | 13 ft | 12 kts | 15° |
| 2026-04-15 14:48 | 36.71737 | 28.78892 | 11 ft | 8 kts | 284° |
| 2026-04-15 14:49 | 36.71743 | 28.78863 | 13 ft | 0 kts | 285° |
| 2026-04-15 14:49 | 36.71744 | 28.78862 | 13 ft | 0 kts | 285° |